Time;durP1;ratioP1;P1;durP2;ratioP2;P2;SDS_P1;SDS_P2;PMS_P1;PMS_P2;Temp;Humidity;BMP_temperature;BMP_pressure;BME280_temperature;BME280_humidity;BME280_pressure;Samples;Min_cycle;Max_cycle;Signal;HPM_P1;HPM_P2
2023/10/16 00:02:13;;;;;;;;;;;;;;;6.39;79.92;100749.57;105593;1259;125347;-77
2023/10/16 00:04:43;;;;;;;;;;;;;;;6.40;80.03;100752.73;105751;1259;67261;-77
2023/10/16 00:07:12;;;;;;;;;;;;;;;6.43;80.22;100757.60;105616;1259;125155;-77
2023/10/16 00:09:39;;;;;;;;;;;;;;;6.48;80.42;100756.91;107681;1259;62300;-77
2023/10/16 00:12:06;;;;;;;;;;;;;;;6.50;80.37;100764.33;105684;1261;61994;-77
2023/10/16 00:14:36;;;;;;;;;;;;;;;6.47;80.16;100764.72;105577;1260;124912;-77
2023/10/16 00:17:08;;;;;;;;;;;;;;;6.41;80.19;100766.07;105792;1260;65075;-80
2023/10/16 00:19:37;;;;;;;;;;;;;;;6.38;80.28;100761.39;105748;1262;125039;-80
2023/10/16 00:22:13;;;;;;;;;;;;;;;6.37;80.47;100762.05;105761;1262;61951;-78
2023/10/16 00:24:45;;;;;;;;;;;;;;;6.34;80.59;100758.07;105631;1260;125305;-78
2023/10/16 00:27:14;;;;;;;;;;;;;;;6.30;80.56;100765.25;105667;1262;74713;-79
2023/10/16 00:29:44;;;;;;;;;;;;;;;6.27;80.72;100761.09;105764;1262;66252;-77
2023/10/16 00:32:16;;;;;;;;;;;;;;;6.24;80.81;100758.53;105603;1260;125812;-77
2023/10/16 00:34:44;;;;;;;;;;;;;;;6.21;80.82;100758.94;105749;1259;61983;-76
2023/10/16 00:37:11;;;;;;;;;;;;;;;6.17;80.88;100756.67;105594;1260;125181;-76
2023/10/16 00:39:37;;;;;;;;;;;;;;;6.15;80.94;100765.28;105782;1262;75581;-76
2023/10/16 00:42:08;;;;;;;;;;;;;;;6.10;81.03;100760.73;105731;1262;64834;-76
2023/10/16 00:44:35;;;;;;;;;;;;;;;6.07;81.02;100760.94;105602;1259;124985;-76
2023/10/16 00:47:04;;;;;;;;;;;;;;;6.02;81.12;100767.36;105668;1260;62087;-76
2023/10/16 00:49:31;;;;;;;;;;;;;;;5.98;81.27;100764.73;105724;1259;125277;-77
2023/10/16 00:51:58;;;;;;;;;;;;;;;5.95;81.32;100763.17;105696;1259;75464;-77
2023/10/16 00:54:28;;;;;;;;;;;;;;;5.93;81.53;100766.55;105668;1260;125365;-78
2023/10/16 00:57:07;;;;;;;;;;;;;;;5.92;81.68;100769.66;105756;1262;71037;-79
2023/10/16 00:59:35;;;;;;;;;;;;;;;5.91;81.60;100775.17;105692;1259;62116;-79
2023/10/16 01:04:37;;;;;;;;;;;;;;;5.85;81.71;100782.93;105744;1260;75491;-77
2023/10/16 01:07:05;;;;;;;;;;;;;;;5.82;81.81;100786.64;105618;1259;125030;-76
2023/10/16 01:09:35;;;;;;;;;;;;;;;5.79;81.74;100790.17;105695;1259;71779;-76
2023/10/16 01:12:10;;;;;;;;;;;;;;;5.76;81.91;100794.91;105784;1262;62058;-76
2023/10/16 01:14:37;;;;;;;;;;;;;;;5.74;81.85;100796.19;105632;1259;125048;-77
2023/10/16 01:17:04;;;;;;;;;;;;;;;5.71;81.88;100793.27;105792;1260;74158;-77
2023/10/16 01:19:31;;;;;;;;;;;;;;;5.67;81.91;100799.70;106221;1259;125025;-77
2023/10/16 01:22:00;;;;;;;;;;;;;;;5.63;81.95;100804.95;106363;1258;72753;-77
2023/10/16 01:24:27;;;;;;;;;;;;;;;5.61;82.02;100808.85;105689;1260;126106;-78
2023/10/16 01:27:01;;;;;;;;;;;;;;;5.60;82.23;100811.24;105630;1260;62249;-79
2023/10/16 01:29:28;;;;;;;;;;;;;;;5.60;82.27;100808.98;105497;1259;74357;-79
2023/10/16 01:31:54;;;;;;;;;;;;;;;5.62;82.46;100805.44;105579;1259;126138;-78
2023/10/16 01:34:22;;;;;;;;;;;;;;;5.68;82.64;100809.31;105715;1262;73202;-79
2023/10/16 01:36:51;;;;;;;;;;;;;;;5.77;82.93;100810.05;105589;1260;125365;-79
2023/10/16 01:42:11;;;;;;;;;;;;;;;5.97;83.12;100817.48;105746;1259;74185;-79
2023/10/16 01:44:39;;;;;;;;;;;;;;;6.07;83.11;100818.41;108802;1259;125296;-78
2023/10/16 01:47:13;;;;;;;;;;;;;;;6.16;83.09;100819.72;108381;1262;71994;-79
2023/10/16 01:49:41;;;;;;;;;;;;;;;6.26;83.03;100819.78;105641;1259;125200;-79
2023/10/16 01:52:11;;;;;;;;;;;;;;;6.36;82.84;100824.91;105729;1260;62112;-77
2023/10/16 01:54:38;;;;;;;;;;;;;;;6.46;82.78;100827.42;105563;1262;125243;-77
2023/10/16 01:57:12;;;;;;;;;;;;;;;6.56;82.67;100822.45;105653;1259;64692;-77
2023/10/16 01:59:45;;;;;;;;;;;;;;;6.65;82.43;100818.64;105649;1258;72482;-76
2023/10/16 02:02:12;;;;;;;;;;;;;;;6.74;82.18;100824.42;105636;1262;125711;-77
2023/10/16 02:04:39;;;;;;;;;;;;;;;6.82;81.94;100827.20;105664;1261;62076;-76
2023/10/16 02:07:09;;;;;;;;;;;;;;;6.89;81.77;100830.46;105539;1259;125581;-77
2023/10/16 02:09:36;;;;;;;;;;;;;;;6.97;81.63;100827.98;105727;1262;64714;-77
2023/10/16 02:12:10;;;;;;;;;;;;;;;7.03;81.47;100833.31;105593;1258;71471;-77
2023/10/16 02:14:39;;;;;;;;;;;;;;;7.09;81.18;100834.92;105596;1261;125028;-77
2023/10/16 02:17:14;;;;;;;;;;;;;;;7.14;80.97;100836.02;107713;1262;60006;-76
2023/10/16 02:19:43;;;;;;;;;;;;;;;7.20;80.77;100832.42;105626;1262;125004;-80
2023/10/16 02:22:14;;;;;;;;;;;;;;;7.24;80.68;100838.83;105833;1261;66012;-80
2023/10/16 02:24:40;;;;;;;;;;;;;;;7.25;80.53;100849.20;105696;1262;125850;-79
2023/10/16 02:27:12;;;;;;;;;;;;;;;7.26;80.36;100859.88;105733;1261;62048;-80
2023/10/16 02:29:45;;;;;;;;;;;;;;;7.27;80.31;100881.05;105766;1257;60246;-80
2023/10/16 02:32:12;;;;;;;;;;;;;;;7.30;80.21;100899.47;106193;1259;125046;-80
2023/10/16 02:34:39;;;;;;;;;;;;;;;7.31;79.94;100908.93;105755;1263;67201;-79
2023/10/16 02:37:10;;;;;;;;;;;;;;;7.33;79.80;100919.48;105693;1259;125050;-80
2023/10/16 02:39:37;;;;;;;;;;;;;;;7.32;79.83;100907.41;105709;1260;62166;-80
2023/10/16 02:42:08;;;;;;;;;;;;;;;7.29;79.59;100900.67;105723;1260;60394;-80
2023/10/16 02:44:38;;;;;;;;;;;;;;;7.25;79.53;100897.70;105603;1258;124969;-80
2023/10/16 02:47:06;;;;;;;;;;;;;;;7.21;79.53;100887.42;105754;1260;65340;-80
2023/10/16 02:49:33;;;;;;;;;;;;;;;7.21;79.54;100882.34;105538;1264;125644;-79
2023/10/16 02:52:00;;;;;;;;;;;;;;;7.24;79.57;100887.36;105688;1262;62058;-80
2023/10/16 02:54:26;;;;;;;;;;;;;;;7.25;79.64;100887.94;105650;1260;125255;-79
2023/10/16 02:56:59;;;;;;;;;;;;;;;7.27;79.88;100882.79;105683;1262;75386;-80
2023/10/16 02:59:26;;;;;;;;;;;;;;;7.27;79.66;100883.11;105736;1258;65052;-80
2023/10/16 03:01:56;;;;;;;;;;;;;;;7.20;79.53;100884.07;105708;1260;125663;-80
2023/10/16 03:04:23;;;;;;;;;;;;;;;7.12;79.40;100881.48;105755;1260;61064;-80
2023/10/16 03:06:53;;;;;;;;;;;;;;;7.06;79.47;100884.52;105618;1259;125980;-80
2023/10/16 03:09:25;;;;;;;;;;;;;;;7.00;79.59;100889.19;105755;1262;76661;-79
2023/10/16 03:12:04;;;;;;;;;;;;;;;6.96;79.63;100889.02;105679;1260;65106;-79
2023/10/16 03:14:36;;;;;;;;;;;;;;;6.98;79.96;100889.80;105653;1259;125027;-79
2023/10/16 03:17:09;;;;;;;;;;;;;;;7.05;80.09;100887.98;105728;1260;62148;-78
2023/10/16 03:19:35;;;;;;;;;;;;;;;7.11;80.18;100887.36;105896;1259;125470;-78
2023/10/16 03:22:11;;;;;;;;;;;;;;;7.17;80.21;100886.40;105812;1262;75397;-80
2023/10/16 03:24:38;;;;;;;;;;;;;;;7.20;80.01;100883.36;105715;1258;125158;-80
2023/10/16 03:27:08;;;;;;;;;;;;;;;7.25;80.11;100879.38;106532;1260;72784;-79
2023/10/16 03:29:35;;;;;;;;;;;;;;;7.30;80.01;100895.63;106395;1260;61946;-80
2023/10/16 03:32:02;;;;;;;;;;;;;;;7.28;79.63;100919.28;106385;1258;124680;-79
2023/10/16 03:34:31;;;;;;;;;;;;;;;7.21;79.44;100926.86;105747;1260;75213;-80
2023/10/16 03:37:05;;;;;;;;;;;;;;;7.14;79.40;100920.28;105596;1259;125637;-79
2023/10/16 03:39:32;;;;;;;;;;;;;;;7.10;79.50;100912.79;105680;1259;73005;-80
2023/10/16 03:41:58;;;;;;;;;;;;;;;7.09;79.57;100907.88;105633;1259;62147;-80
2023/10/16 03:44:26;;;;;;;;;;;;;;;7.11;79.63;100913.38;105623;1259;125014;-79
2023/10/16 03:46:55;;;;;;;;;;;;;;;7.18;79.96;100911.02;105732;1262;75480;-79
2023/10/16 03:49:22;;;;;;;;;;;;;;;7.24;79.82;100913.88;105705;1262;124333;-79
2023/10/16 03:51:50;;;;;;;;;;;;;;;7.28;80.07;100914.05;105744;1261;70573;-80
2023/10/16 03:54:30;;;;;;;;;;;;;;;7.31;79.88;100916.98;105615;1258;124517;-78
2023/10/16 03:56:59;;;;;;;;;;;;;;;7.34;80.01;100916.23;105769;1259;62149;-79
2023/10/16 03:59:29;;;;;;;;;;;;;;;7.35;79.93;100905.98;107561;1260;75505;-78
2023/10/16 04:01:56;;;;;;;;;;;;;;;7.38;80.09;100912.52;105676;1262;124501;-79
2023/10/16 04:04:26;;;;;;;;;;;;;;;7.41;80.15;100910.91;105764;1262;72358;-78
2023/10/16 04:06:56;;;;;;;;;;;;;;;7.42;80.05;100907.11;105828;1260;124303;-79
2023/10/16 04:09:29;;;;;;;;;;;;;;;7.41;80.12;100901.31;106384;1258;61995;-80
2023/10/16 04:11:57;;;;;;;;;;;;;;;7.44;80.12;100905.10;106425;1257;73371;-79
2023/10/16 04:14:45;;;;;;;;;;;;;;;7.44;80.24;100905.27;106194;1260;124214;-79
2023/10/16 04:17:12;;;;;;;;;;;;;;;7.43;80.19;100919.01;105879;1262;72742;-80
2023/10/16 04:19:59;;;;;;;;;;;;;;;7.41;79.99;100933.10;105655;1257;124839;-78
2023/10/16 04:22:27;;;;;;;;;;;;;;;7.31;79.91;100940.91;105830;1258;62047;-79
2023/10/16 04:24:54;;;;;;;;;;;;;;;7.24;79.88;100940.09;105700;1258;125612;-80
2023/10/16 04:30:10;;;;;;;;;;;;;;;7.11;80.02;100943.01;105743;1258;72596;-80
2023/10/16 04:32:42;;;;;;;;;;;;;;;7.13;80.26;100940.13;105724;1260;125164;-80
2023/10/16 04:37:55;;;;;;;;;;;;;;;7.26;80.59;100928.98;105729;1258;124999;-80
2023/10/16 04:42:02;;;;;;;;;;;;;;;7.32;80.69;100929.77;105886;1262;66117;-80
2023/10/16 04:43:37;;;;;;;;;;;;;;;7.39;80.72;100922.55;105680;1257;125581;-81
2023/10/16 04:46:19;;;;;;;;;;;;;;;7.44;80.52;100922.02;106469;1258;61943;-82
2023/10/16 04:48:51;;;;;;;;;;;;;;;7.47;80.42;100916.76;106407;1257;125288;-82
2023/10/16 04:51:22;;;;;;;;;;;;;;;7.53;80.56;100910.01;105784;1262;75388;-79
2023/10/16 04:53:58;;;;;;;;;;;;;;;7.56;80.37;100916.93;105853;1260;66076;-80
2023/10/16 05:02:10;;;;;;;;;;;;;;;7.69;80.54;100907.14;106354;1260;125173;-82
2023/10/16 05:07:37;;;;;;;;;;;;;;;7.72;80.27;100904.63;106346;1260;125394;-81
2023/10/16 05:16:30;;;;;;;;;;;;;;;7.66;80.18;100906.83;106738;1259;62033;-79
2023/10/16 05:18:51;;;;;;;;;;;;;;;7.64;80.09;100906.77;106477;1262;125682;-79
2023/10/16 06:16:28;;;;;;;;;;;;;;;7.92;79.57;100969.37;105814;1263;66252;-79
2023/10/16 06:18:55;;;;;;;;;;;;;;;7.97;79.52;100973.41;106372;1263;125768;-79
2023/10/16 06:21:21;;;;;;;;;;;;;;;8.04;79.55;100980.83;105972;1262;62093;-79
2023/10/16 06:23:48;;;;;;;;;;;;;;;8.09;79.37;100993.27;105771;1258;62026;-78
2023/10/16 06:26:15;;;;;;;;;;;;;;;8.11;79.37;100996.16;105772;1259;125281;-79
2023/10/16 06:28:52;;;;;;;;;;;;;;;8.15;79.22;101000.99;105763;1262;66270;-79
2023/10/16 06:31:22;;;;;;;;;;;;;;;8.18;79.26;101010.73;105706;1262;126441;-79
2023/10/16 06:33:53;;;;;;;;;;;;;;;8.23;79.13;101014.79;105945;1262;62380;-79
2023/10/16 06:36:24;;;;;;;;;;;;;;;8.28;79.10;101014.63;106388;1260;62117;-79
2023/10/16 06:38:51;;;;;;;;;;;;;;;8.35;79.03;101015.23;106372;1262;124901;-79
2023/10/16 06:41:18;;;;;;;;;;;;;;;8.43;78.97;101016.27;106341;1259;66776;-79
2023/10/16 06:43:47;;;;;;;;;;;;;;;8.50;78.78;101012.00;106288;1259;125081;-79
2023/10/16 06:46:24;;;;;;;;;;;;;;;8.57;78.69;101010.84;106365;1260;60243;-79
2023/10/16 06:48:52;;;;;;;;;;;;;;;8.68;78.72;101011.61;108795;1260;125959;-77
2023/10/16 06:51:25;;;;;;;;;;;;;;;8.79;78.56;101010.60;106687;1262;74611;-79
2023/10/16 06:53:53;;;;;;;;;;;;;;;8.85;78.23;101010.98;105991;1260;66232;-79
2023/10/16 06:56:34;;;;;;;;;;;;;;;8.90;78.03;101005.58;106298;1262;124892;-79
2023/10/16 06:59:00;;;;;;;;;;;;;;;8.99;78.00;101008.71;105883;1262;62148;-79
2023/10/16 07:01:27;;;;;;;;;;;;;;;9.04;77.73;101010.80;106413;1262;124908;-79
2023/10/16 07:03:56;;;;;;;;;;;;;;;9.10;77.57;101007.52;105970;1259;75483;-78
2023/10/16 07:06:24;;;;;;;;;;;;;;;9.11;77.17;101007.02;105735;1264;65103;-78
2023/10/16 07:08:51;;;;;;;;;;;;;;;9.13;76.96;101009.00;105800;1261;124012;-79
2023/10/16 07:11:19;;;;;;;;;;;;;;;9.13;76.90;101011.28;105897;1260;62059;-78
2023/10/16 07:13:45;;;;;;;;;;;;;;;9.13;76.71;101013.24;105718;1262;124227;-78
2023/10/16 07:16:12;;;;;;;;;;;;;;;9.12;76.48;101012.49;105913;1262;74551;-79
2023/10/16 07:18:42;;;;;;;;;;;;;;;9.12;76.29;101016.14;105675;1262;124402;-78
2023/10/16 07:21:10;;;;;;;;;;;;;;;9.10;76.07;101016.41;105809;1260;72708;-79
2023/10/16 07:23:37;;;;;;;;;;;;;;;9.07;76.02;101015.98;105721;1260;62203;-79
2023/10/16 07:26:04;;;;;;;;;;;;;;;9.08;75.93;101018.98;106223;1265;125761;-79
2023/10/16 07:28:31;;;;;;;;;;;;;;;9.05;75.86;101023.08;106209;1260;74584;-79
2023/10/16 07:30:59;;;;;;;;;;;;;;;9.01;75.68;101023.66;106267;1259;125293;-79
2023/10/16 07:33:25;;;;;;;;;;;;;;;8.97;75.52;101025.59;106366;1263;71477;-78
2023/10/16 07:35:53;;;;;;;;;;;;;;;8.91;75.48;101031.00;105831;1259;61317;-78
2023/10/16 07:38:20;;;;;;;;;;;;;;;8.86;75.49;101033.27;105819;1260;126688;-79
2023/10/16 07:40:51;;;;;;;;;;;;;;;8.81;75.33;101038.67;105746;1264;74612;-79
2023/10/16 07:43:26;;;;;;;;;;;;;;;8.70;75.22;101043.52;105872;1259;124839;-78
2023/10/16 07:46:13;;;;;;;;;;;;;;;8.59;75.13;101045.17;105816;1260;73642;-78
2023/10/16 07:48:40;;;;;;;;;;;;;;;8.51;75.43;101043.14;105582;1259;125037;-79
2023/10/16 07:51:07;;;;;;;;;;;;;;;8.49;75.42;101043.59;105840;1261;62155;-80
2023/10/16 07:53:34;;;;;;;;;;;;;;;8.52;75.77;101044.59;105701;1259;74203;-80
2023/10/16 07:56:17;;;;;;;;;;;;;;;8.59;75.96;101041.19;105658;1259;124854;-81
2023/10/16 07:58:49;;;;;;;;;;;;;;;8.70;76.06;101041.77;105776;1262;71321;-80
2023/10/16 08:03:45;;;;;;;;;;;;;;;8.88;76.04;101046.29;106298;1261;62063;-79
2023/10/16 08:06:12;;;;;;;;;;;;;;;8.94;76.03;101056.46;105776;1258;74162;-80
2023/10/16 08:08:39;;;;;;;;;;;;;;;8.93;75.75;101064.85;105865;1265;125570;-79
2023/10/16 08:11:23;;;;;;;;;;;;;;;8.95;75.73;101066.13;105812;1262;72523;-78
2023/10/16 08:13:52;;;;;;;;;;;;;;;9.02;75.70;101069.02;105721;1262;125442;-79
2023/10/16 08:16:21;;;;;;;;;;;;;;;9.07;75.80;101068.84;105742;1261;62121;-80
2023/10/16 08:18:48;;;;;;;;;;;;;;;9.11;75.72;101068.63;106971;1261;125149;-79
2023/10/16 08:21:24;;;;;;;;;;;;;;;9.08;75.50;101064.88;105765;1262;66258;-78
2023/10/16 08:23:55;;;;;;;;;;;;;;;9.08;75.66;101067.13;105676;1261;72424;-78
2023/10/16 08:26:41;;;;;;;;;;;;;;;9.10;75.65;101073.52;105647;1260;124940;-79
2023/10/16 08:31:44;;;;;;;;;;;;;;;9.16;75.67;101077.03;105606;1258;125320;-78
2023/10/16 08:34:11;;;;;;;;;;;;;;;9.18;75.53;101081.14;105685;1264;66010;-79
2023/10/16 08:36:38;;;;;;;;;;;;;;;9.22;75.76;101085.30;105778;1263;125380;-79
2023/10/16 08:39:14;;;;;;;;;;;;;;;9.25;75.69;101085.25;105829;1263;62132;-79
2023/10/16 08:42:01;;;;;;;;;;;;;;;9.37;75.92;101087.58;105835;1258;62172;-79
2023/10/16 08:44:28;;;;;;;;;;;;;;;9.53;75.97;101086.56;105777;1260;125171;-79
2023/10/16 08:49:24;;;;;;;;;;;;;;;9.86;76.00;101076.81;105543;1263;124957;-79
2023/10/16 08:51:54;;;;;;;;;;;;;;;10.04;75.92;101070.73;105809;1262;62088;-79
2023/10/16 08:55:00;;;;;;;;;;;;;;;10.14;75.63;101072.83;105843;1260;61986;-78
2023/10/16 08:57:22;;;;;;;;;;;;;;;10.34;75.65;101065.23;105805;1258;75888;-77
2023/10/16 08:59:50;;;;;;;;;;;;;;;10.53;75.73;101073.19;105745;1263;64991;-79
2023/10/16 09:02:20;;;;;;;;;;;;;;;10.70;75.47;101068.94;108814;1260;124643;-79
2023/10/16 09:04:49;;;;;;;;;;;;;;;10.85;75.24;101062.89;107880;1263;62089;-79
2023/10/16 09:07:16;;;;;;;;;;;;;;;11.04;75.10;101063.06;106189;1266;124910;-79
2023/10/16 09:09:49;;;;;;;;;;;;;;;11.23;75.13;101068.00;105752;1263;75885;-79
2023/10/16 09:12:28;;;;;;;;;;;;;;;11.39;74.60;101061.76;105752;1260;66071;-79
2023/10/16 09:15:05;;;;;;;;;;;;;;;11.52;74.42;101063.33;105718;1258;125330;-78
2023/10/16 09:17:35;;;;;;;;;;;;;;;11.58;74.12;101062.25;105705;1260;62008;-79
2023/10/16 09:20:02;;;;;;;;;;;;;;;11.62;73.78;101065.17;105424;1259;227365;-79
2023/10/16 09:22:29;;;;;;;;;;;;;;;11.63;73.23;101063.95;105702;1259;75536;-79
2023/10/16 09:24:58;;;;;;;;;;;;;;;11.66;73.02;101064.56;105824;1258;125371;-79
2023/10/16 09:27:30;;;;;;;;;;;;;;;11.74;72.64;101069.49;105948;1259;71282;-79
2023/10/16 09:30:01;;;;;;;;;;;;;;;11.73;72.52;101071.58;105707;1262;62067;-79
2023/10/16 09:32:39;;;;;;;;;;;;;;;11.67;72.16;101076.88;105653;1261;124474;-79
2023/10/16 09:35:10;;;;;;;;;;;;;;;11.53;71.71;101083.20;105749;1262;74057;-80
2023/10/16 09:37:37;;;;;;;;;;;;;;;11.40;71.42;101092.52;106341;1261;124426;-79
2023/10/16 09:40:35;;;;;;;;;;;;;;;11.35;71.42;101098.38;106139;1260;72659;-80
2023/10/16 09:43:06;;;;;;;;;;;;;;;11.35;71.46;101114.17;105616;1260;125008;-80
2023/10/16 09:45:33;;;;;;;;;;;;;;;11.23;71.38;101117.54;105778;1263;61972;-79
2023/10/16 09:48:07;;;;;;;;;;;;;;;11.05;71.36;101116.15;106394;1263;76680;-76
2023/10/16 09:50:37;;;;;;;;;;;;;;;10.91;71.28;101122.57;105565;1259;124771;-78
2023/10/16 09:53:07;;;;;;;;;;;;;;;10.80;71.40;101133.14;105776;1261;72531;-77
2023/10/16 09:55:38;;;;;;;;;;;;;;;10.72;71.53;101134.98;105816;1262;124440;-78
2023/10/16 09:58:08;;;;;;;;;;;;;;;10.60;71.28;101142.70;105776;1263;61731;-78
2023/10/16 10:00:39;;;;;;;;;;;;;;;10.45;71.51;101148.58;105646;1272;125707;-78
2023/10/16 10:03:07;;;;;;;;;;;;;;;10.38;71.97;101137.48;108922;1260;66333;-77
2023/10/16 10:05:41;;;;;;;;;;;;;;;10.43;72.51;101141.83;108906;1260;71369;-77
2023/10/16 10:08:58;;;;;;;;;;;;;;;10.56;72.78;101140.12;108239;1261;125272;-79
2023/10/16 10:11:23;;;;;;;;;;;;;;;10.78;73.19;101125.89;105704;1261;62176;-78
2023/10/16 10:14:09;;;;;;;;;;;;;;;11.08;73.52;101125.55;106300;1262;125316;-77
2023/10/16 10:16:37;;;;;;;;;;;;;;;11.36;73.36;101132.30;105703;1261;66966;-79
2023/10/16 10:19:04;;;;;;;;;;;;;;;11.53;73.16;101141.55;105660;1262;125588;-77
2023/10/16 10:21:44;;;;;;;;;;;;;;;11.53;72.58;101138.39;105968;1261;62168;-79
2023/10/16 10:24:16;;;;;;;;;;;;;;;11.35;71.59;101151.25;106355;1261;60070;-78
2023/10/16 10:26:50;;;;;;;;;;;;;;;11.10;71.38;101150.70;106250;1271;124745;-78
2023/10/16 10:29:20;;;;;;;;;;;;;;;10.96;71.50;101137.48;106381;1263;66110;-79
2023/10/16 10:31:51;;;;;;;;;;;;;;;10.95;71.31;101145.88;106307;1261;124522;-79
2023/10/16 10:34:22;;;;;;;;;;;;;;;10.95;71.21;101155.17;106335;1258;60192;-78
2023/10/16 10:36:50;;;;;;;;;;;;;;;10.90;71.28;101147.67;106216;1259;125201;-79
2023/10/16 10:39:20;;;;;;;;;;;;;;;10.87;71.59;101143.02;106356;1257;74163;-77
2023/10/16 10:41:51;;;;;;;;;;;;;;;10.83;71.72;101135.88;105795;1260;65978;-78
2023/10/16 10:44:19;;;;;;;;;;;;;;;10.78;71.76;101123.43;105850;1262;124589;-78
2023/10/16 10:46:49;;;;;;;;;;;;;;;10.71;71.56;101128.48;105730;1263;62108;-78
2023/10/16 10:49:16;;;;;;;;;;;;;;;10.61;71.54;101135.54;106355;1261;124586;-79
2023/10/16 10:51:46;;;;;;;;;;;;;;;10.57;71.61;101138.93;106200;1259;74996;-79
2023/10/16 10:54:13;;;;;;;;;;;;;;;10.59;71.89;101140.23;106270;1260;64990;-79
2023/10/16 10:56:40;;;;;;;;;;;;;;;10.67;72.13;101137.85;106236;1260;124381;-78
2023/10/16 10:59:09;;;;;;;;;;;;;;;10.76;72.30;101137.07;105642;1261;61989;-79
2023/10/16 11:01:44;;;;;;;;;;;;;;;10.87;72.50;101140.20;105705;1260;124830;-78
2023/10/16 11:04:15;;;;;;;;;;;;;;;10.98;72.49;101143.52;105817;1261;74292;-78
2023/10/16 11:06:48;;;;;;;;;;;;;;;11.04;72.54;101140.20;105768;1260;124674;-79
2023/10/16 11:09:18;;;;;;;;;;;;;;;11.11;72.38;101138.08;105742;1260;72052;-79
2023/10/16 11:11:47;;;;;;;;;;;;;;;11.16;72.32;101138.42;105673;1263;62169;-78
2023/10/16 11:14:14;;;;;;;;;;;;;;;11.21;72.10;101134.52;107635;1261;125442;-78
2023/10/16 11:16:45;;;;;;;;;;;;;;;11.23;71.71;101133.85;105711;1257;74188;-78
2023/10/16 11:19:11;;;;;;;;;;;;;;;11.23;71.73;101131.27;105652;1263;125701;-80
2023/10/16 11:21:47;;;;;;;;;;;;;;;11.22;71.40;101129.97;106365;1261;71777;-78
2023/10/16 11:24:13;;;;;;;;;;;;;;;11.16;71.02;101125.24;106323;1258;62104;-78
2023/10/16 11:26:45;;;;;;;;;;;;;;;11.14;71.08;101123.24;105618;1262;124847;-78
2023/10/16 11:29:12;;;;;;;;;;;;;;;11.10;70.73;101129.46;105737;1261;74695;-79
2023/10/16 11:31:41;;;;;;;;;;;;;;;11.00;70.65;101129.15;105556;1264;125132;-79
2023/10/16 11:34:12;;;;;;;;;;;;;;;10.82;70.54;101128.98;108907;1260;72689;-78
2023/10/16 11:36:39;;;;;;;;;;;;;;;10.66;70.42;101128.87;107800;1260;125780;-78
2023/10/16 11:39:07;;;;;;;;;;;;;;;10.59;70.48;101131.97;105742;1263;62044;-78
2023/10/16 11:41:34;;;;;;;;;;;;;;;10.56;70.67;101131.53;105763;1264;75513;-79
2023/10/16 11:44:05;;;;;;;;;;;;;;;10.51;70.73;101131.56;105781;1261;124460;-78
2023/10/16 11:46:34;;;;;;;;;;;;;;;10.38;70.60;101137.64;105864;1263;71821;-79
2023/10/16 11:49:17;;;;;;;;;;;;;;;10.17;70.55;101138.14;105733;1263;125242;-79
2023/10/16 11:51:51;;;;;;;;;;;;;;;10.02;70.91;101140.11;105716;1264;62091;-80
2023/10/16 11:54:21;;;;;;;;;;;;;;;9.92;71.08;101139.98;108883;1259;75525;-78
2023/10/16 11:56:47;;;;;;;;;;;;;;;9.91;71.63;101139.56;105768;1264;125670;-78
2023/10/16 11:59:15;;;;;;;;;;;;;;;9.91;71.72;101140.45;105923;1257;70645;-78
2023/10/16 12:01:44;;;;;;;;;;;;;;;9.90;71.80;101141.29;106457;1258;125014;-80
2023/10/16 12:04:11;;;;;;;;;;;;;;;9.91;71.89;101143.23;106293;1262;62534;-78
2023/10/16 12:06:38;;;;;;;;;;;;;;;9.90;71.72;101143.21;106173;1259;125278;-78
2023/10/16 12:09:12;;;;;;;;;;;;;;;9.92;71.85;101146.26;106184;1261;66062;-79
2023/10/16 12:11:42;;;;;;;;;;;;;;;9.93;71.68;101144.72;106286;1259;72546;-79
2023/10/16 12:14:13;;;;;;;;;;;;;;;9.95;71.71;101148.80;106322;1260;125245;-79
2023/10/16 12:16:45;;;;;;;;;;;;;;;9.96;71.71;101146.03;106329;1263;62048;-79
2023/10/16 12:19:12;;;;;;;;;;;;;;;9.96;71.73;101145.70;106184;1260;125314;-79
2023/10/16 12:21:38;;;;;;;;;;;;;;;9.97;71.80;101149.06;106499;1262;66271;-79
2023/10/16 12:24:05;;;;;;;;;;;;;;;9.98;71.83;101154.17;106445;1263;72715;-79
2023/10/16 12:26:32;;;;;;;;;;;;;;;9.99;71.87;101157.20;106403;1260;124354;-79
2023/10/16 12:28:59;;;;;;;;;;;;;;;10.00;71.91;101160.55;106465;1257;62085;-79
2023/10/16 12:31:26;;;;;;;;;;;;;;;10.00;71.98;101167.58;106310;1259;125965;-79
2023/10/16 12:33:55;;;;;;;;;;;;;;;10.04;72.23;101165.23;106344;1262;64983;-79
2023/10/16 12:36:23;;;;;;;;;;;;;;;10.06;72.21;101168.66;106345;1262;71383;-79
2023/10/16 12:38:53;;;;;;;;;;;;;;;10.08;72.15;101168.55;106245;1261;125163;-79
2023/10/16 12:41:21;;;;;;;;;;;;;;;10.10;72.26;101167.40;106355;1260;62111;-78
2023/10/16 12:43:48;;;;;;;;;;;;;;;10.16;72.38;101169.86;106273;1260;125777;-81
2023/10/16 12:46:14;;;;;;;;;;;;;;;10.21;72.27;101170.73;106396;1262;65676;-81
2023/10/16 12:48:43;;;;;;;;;;;;;;;10.25;72.18;101174.73;106208;1261;125256;-79
2023/10/16 12:51:10;;;;;;;;;;;;;;;10.32;72.33;101174.98;106376;1263;61915;-79
2023/10/16 12:53:41;;;;;;;;;;;;;;;10.38;72.14;101181.65;106474;1262;62006;-80
2023/10/16 12:56:07;;;;;;;;;;;;;;;10.42;72.13;101186.19;105667;1258;124467;-79
2023/10/16 12:58:34;;;;;;;;;;;;;;;10.45;72.10;101190.16;105891;1264;66437;-80
2023/10/16 13:01:04;;;;;;;;;;;;;;;10.50;72.17;101188.73;106329;1258;125202;-79
2023/10/16 13:03:33;;;;;;;;;;;;;;;10.53;72.05;101192.33;108936;1258;59900;-79
2023/10/16 13:06:05;;;;;;;;;;;;;;;10.56;72.19;101191.55;106565;1262;62150;-79
2023/10/16 13:08:34;;;;;;;;;;;;;;;10.60;72.10;101193.24;106165;1261;125587;-79
2023/10/16 13:11:01;;;;;;;;;;;;;;;10.63;71.91;101196.70;106272;1260;66187;-78
2023/10/16 13:13:28;;;;;;;;;;;;;;;10.65;71.89;101199.23;106176;1259;125444;-78
2023/10/16 13:15:57;;;;;;;;;;;;;;;10.68;71.76;101195.45;105751;1263;60462;-81
2023/10/16 13:18:27;;;;;;;;;;;;;;;10.73;71.82;101196.27;106559;1258;62133;-79
2023/10/16 13:21:07;;;;;;;;;;;;;;;10.79;71.90;101197.38;106490;1258;125034;-81
2023/10/16 13:23:36;;;;;;;;;;;;;;;10.87;71.94;101198.67;106593;1261;65745;-81
2023/10/16 13:26:07;;;;;;;;;;;;;;;10.97;71.90;101205.10;106663;1259;125485;-81
2023/10/16 13:28:36;;;;;;;;;;;;;;;11.05;71.52;101202.02;106563;1258;61947;-82
2023/10/16 13:31:04;;;;;;;;;;;;;;;11.10;71.58;101200.79;106234;1260;125715;-80
2023/10/16 13:33:32;;;;;;;;;;;;;;;11.21;71.59;101200.22;106600;1260;75481;-80
2023/10/16 13:35:59;;;;;;;;;;;;;;;11.32;71.60;101202.66;106589;1259;64530;-81
2023/10/16 13:38:26;;;;;;;;;;;;;;;11.44;71.46;101204.56;106290;1259;124542;-81
2023/10/16 13:40:53;;;;;;;;;;;;;;;11.56;71.59;101210.55;106289;1259;61967;-81
2023/10/16 13:43:20;;;;;;;;;;;;;;;11.71;71.61;101213.25;106363;1261;124604;-81
2023/10/16 13:45:49;;;;;;;;;;;;;;;11.87;71.46;101212.81;106373;1257;75386;-81
2023/10/16 13:48:21;;;;;;;;;;;;;;;12.01;71.21;101212.66;106433;1257;64728;-81
2023/10/16 13:50:48;;;;;;;;;;;;;;;12.09;70.71;101221.17;106308;1259;124711;-81
2023/10/16 13:53:15;;;;;;;;;;;;;;;12.17;70.22;101223.99;106316;1261;62200;-81
2023/10/16 13:55:41;;;;;;;;;;;;;;;12.21;69.91;101228.67;106265;1260;126260;-81
2023/10/16 13:58:08;;;;;;;;;;;;;;;12.17;69.60;101228.76;106460;1259;74383;-81
2023/10/16 14:00:35;;;;;;;;;;;;;;;12.11;69.50;101226.31;106263;1262;125956;-80
2023/10/16 14:05:50;;;;;;;;;;;;;;;11.99;69.41;101228.81;106324;1260;62143;-81
2023/10/16 14:08:17;;;;;;;;;;;;;;;11.94;69.35;101232.20;106133;1260;125333;-81
2023/10/16 14:10:49;;;;;;;;;;;;;;;11.89;69.22;101229.94;106448;1259;74097;-81
2023/10/16 14:13:19;;;;;;;;;;;;;;;11.81;68.53;101233.05;107453;1259;124974;-81
2023/10/16 14:15:46;;;;;;;;;;;;;;;11.69;68.05;101234.98;106554;1257;71462;-80